Kasane, Botswana
Current Conditions -  °F | °C
As of 8:00 PM on Monday 24 Nov 2014 (Local Time) from FBKE Reporting Station
Few Clouds Few Clouds  
Wind Chill: 81°   Ceiling: Unl
Heat Index: 81°   Visibility: 6mi
Dew Point: 59°   Wind: 0mph
Humidity: 48%   Direction: NA
Pressure: 29.94"   Gusts: NA
Location:  17.81°S, 25.15°E
Report Text: FBKE 241800Z 00000KT 9999 FEW030 FEW035CB 27/15 Q1014
Loading
Personal Weather Stations






























Interactive Weather Map New forecast layout! Learn more

10-Day Weather Forecast

Advertisements
Track Severe Weather on mobile